| time (UTC) | temp F | wind direction | speed knots | gust knots | rain 1hr in | rain 24hr in | rain mn in | humidity % | barometer mb |
| 20260905151532 | 62 | 150 | 1.7 | 7.0 | 0.00 | 0.07 | 0.07 | 56 | 1018.8 |
| 20260905150012 | 63 | 165 | 0.9 | 9.6 | 0.00 | 0.07 | 0.07 | 56 | 1018.6 |
| 20260905144518 | 64 | 142 | 1.7 | 7.0 | 0.00 | 0.07 | 0.07 | 55 | 1018.7 |
| 20260905143004 | 65 | 27 | 1.7 | 7.8 | 0.00 | 0.07 | 0.07 | 53 | 1018.7 |
| 20260905141515 | 65 | 179 | 2.6 | 7.0 | 0.00 | 0.07 | 0.07 | 53 | 1018.5 |
| 20260905140010 | 65 | 179 | 3.5 | 10.4 | 0.00 | 0.07 | 0.07 | 53 | 1018.5 |
| 20260905134514 | 63 | 165 | 1.7 | 5.2 | 0.00 | 0.07 | 0.07 | 55 | 1018.7 |
| 20260905133024 | 64 | 179 | 1.7 | 10.4 | 0.00 | 0.07 | 0.07 | 53 | 1018.7 |
| 20260905131529 | 63 | 6 | 1.7 | 7.8 | 0.00 | 0.07 | 0.07 | 57 | 1018.8 |
| 20260905130006 | 64 | 30 | 0.9 | 7.8 | 0.00 | 0.07 | 0.07 | 56 | 1018.8 |
| 20260905124511 | 62 | 165 | 1.7 | 7.0 | 0.00 | 0.07 | 0.07 | 62 | 1018.8 |
| 20260905123017 | 62 | 179 | 0.9 | 7.8 | 0.00 | 0.07 | 0.07 | 64 | 1018.8 |
| 20260905121524 | 63 | 21 | 2.6 | 7.0 | 0.00 | 0.07 | 0.07 | 61 | 1018.8 |
| 20260905120007 | 64 | 195 | 1.7 | 6.1 | 0.00 | 0.07 | 0.07 | 63 | 1018.7 |
| 20260905114510 | 63 | 179 | 3.5 | 10.4 | 0.00 | 0.07 | 0.07 | 62 | 1018.9 |
| 20260905113010 | 64 | 179 | 2.6 | 12.2 | 0.00 | 0.07 | 0.07 | 58 | 1018.7 |
| 20260905111521 | 64 | 277 | 2.6 | 12.2 | 0.00 | 0.07 | 0.07 | 58 | 1018.5 |
| 20260905110024 | 67 | 165 | 0.9 | 7.0 | 0.00 | 0.07 | 0.07 | 57 | 1018.6 |
| 20260905104527 | 65 | 160 | 1.7 | 10.4 | 0.00 | 0.07 | 0.07 | 59 | 1018.4 |
| 20260905103011 | 64 | 109 | 0.9 | 11.3 | 0.00 | 0.07 | 0.07 | 62 | 1018.3 |
| 20260905101523 | 61 | 179 | 0.9 | 9.6 | 0.00 | 0.07 | 0.07 | 66 | 1018.5 |
| 20260905100023 | 63 | 30 | 1.7 | 7.0 | 0.00 | 0.07 | 0.07 | 64 | 1018.6 |
| 20260905094527 | 62 | 155 | 0.9 | 7.8 | 0.00 | 0.07 | 0.07 | 66 | 1018.6 |
| 20260905093032 | 61 | 179 | 1.7 | 9.6 | 0.00 | 0.07 | 0.07 | 66 | 1018.7 |
| 20260905091515 | 63 | 179 | 2.6 | 11.3 | 0.00 | 0.07 | 0.07 | 65 | 1018.6 |
| 20260905090016 | 62 | 179 | 3.5 | 12.2 | 0.00 | 0.07 | 0.07 | 65 | 1018.6 |
| 20260905084523 | 62 | 32 | 1.7 | 6.1 | 0.00 | 0.07 | 0.07 | 68 | 1018.4 |
| 20260905083026 | 61 | 165 | 1.7 | 6.1 | 0.00 | 0.07 | 0.07 | 69 | 1018.3 |
| 20260905081533 | 60 | 165 | 0.9 | 4.3 | 0.00 | 0.07 | 0.07 | 71 | 1018.0 |
| 20260905080012 | 59 | 179 | 0.0 | 10.4 | 0.00 | 0.07 | 0.07 | 73 | 1018.1 |
| 20260905074539 | 59 | 179 | 0.9 | 6.1 | 0.00 | 0.07 | 0.07 | 76 | 1018.0 |
| 20260905073026 | 58 | 5 | 1.7 | 6.1 | 0.00 | 0.07 | 0.07 | 77 | 1017.9 |
| 20260905071528 | 59 | 277 | 0.9 | 5.2 | 0.00 | 0.07 | 0.07 | 77 | 1017.8 |
| 20260905070037 | 55 | 179 | 0.9 | 4.3 | 0.00 | 0.07 | 0.07 | 82 | 1017.7 |
| 20260905064534 | 55 | 179 | 0.9 | 7.0 | 0.00 | 0.07 | 0.07 | 83 | 1017.7 |
| 20260905063020 | 54 | 179 | 0.9 | 7.0 | 0.00 | 0.07 | 0.07 | 85 | 1017.5 |
| 20260905061526 | 54 | 179 | 0.0 | 5.2 | 0.00 | 0.07 | 0.07 | 84 | 1017.4 |
| 20260905060006 | 54 | 179 | 0.0 | 3.5 | 0.00 | 0.07 | 0.07 | 85 | 1017.3 |
| 20260905054511 | 55 | 179 | 0.9 | 3.5 | 0.00 | 0.07 | 0.07 | 85 | 1017.1 |
| 20260905053016 | 54 | 179 | 0.9 | 2.6 | 0.01 | 0.07 | 0.07 | 86 | 1016.5 |
| 20260905051522 | 54 | 179 | 1.7 | 3.5 | 0.04 | 0.07 | 0.07 | 87 | 1016.7 |
| 20260905050005 | 54 | 179 | 0.0 | 2.6 | 0.04 | 0.07 | 0.07 | 87 | 1016.6 |
| 20260905044511 | 54 | 179 | 0.0 | 2.6 | 0.04 | 0.07 | 0.07 | 86 | 1015.9 |
| 20260905043012 | 55 | 179 | 0.0 | 5.2 | 0.03 | 0.05 | 0.05 | 83 | 1016.5 |
| 20260905041523 | 55 | 179 | 1.7 | 7.0 | 0.00 | 0.02 | 0.02 | 79 | 1016.9 |
| 20260905040033 | 55 | 179 | 1.7 | 8.7 | 0.00 | 0.02 | 0.02 | 80 | 1016.6 |
| 20260905034506 | 55 | 179 | 0.9 | 3.5 | 0.00 | 0.02 | 0.02 | 80 | 1016.0 |
| 20260905033010 | 56 | 179 | 1.7 | 7.8 | 0.02 | 0.02 | 0.02 | 80 | 1016.2 |
| 20260905031516 | 56 | 179 | 1.7 | 6.1 | 0.01 | 0.01 | 0.01 | 78 | 1015.6 |
| 20260905030024 | 57 | 179 | 0.9 | 8.7 | 0.01 | 0.01 | 0.01 | 81 | 1015.7 |
| 20260905024530 | 57 | 179 | 0.9 | 7.0 | 0.01 | 0.01 | 0.01 | 81 | 1015.4 |
| 20260905023031 | 59 | 179 | 0.9 | 5.2 | 0.00 | 0.00 | 0.00 | 78 | 1015.4 |
| 20260905021514 | 58 | 179 | 0.0 | 2.6 | 0.00 | 0.00 | 0.00 | 78 | 1015.0 |
| 20260905020023 | 58 | 179 | 0.9 | 3.5 | 0.00 | 0.00 | 0.00 | 80 | 1015.1 |
| 20260905014524 | 59 | 179 | 0.0 | 3.5 | 0.00 | 0.00 | 0.00 | 79 | 1015.1 |
| 20260905013028 | 60 | 179 | 0.0 | 3.5 | 0.00 | 0.00 | 0.00 | 75 | 1014.7 |
| 20260905011530 | 61 | 179 | 0.9 | 4.3 | 0.00 | 0.00 | 0.00 | 74 | 1015.1 |
| 20260905010020 | 60 | 179 | 0.9 | 4.3 | 0.00 | 0.00 | 0.00 | 73 | 1015.1 |
| 20260905004520 | 59 | 179 | 0.0 | 2.6 | 0.00 | 0.00 | 0.00 | 80 | 1015.0 |
| 20260905003028 | 60 | 179 | 0.0 | 0.0 | 0.00 | 0.00 | 0.00 | 79 | 1015.0 |
| 20260905001527 | 60 | 179 | 0.0 | 2.6 | 0.00 | 0.00 | 0.00 | 78 | 1014.5 |
| 20260905000005 | 60 | 179 | 0.0 | 0.9 | 0.00 | 0.00 | 0.00 | 77 | 1014.4 |
| 20260904234504 | 60 | 179 | 0.0 | 0.0 | 0.00 | 0.00 | 0.00 | 74 | 1014.5 |
| 20260904233004 | 60 | 179 | 0.0 | 0.9 | 0.00 | 0.00 | 0.00 | 73 | 1014.0 |
| 20260904231503 | 61 | 15 | 0.9 | 3.5 | 0.00 | 0.00 | 0.00 | 72 | 1014.4 |
| 20260904230011 | 61 | 323 | 0.0 | 1.7 | 0.00 | 0.00 | 0.00 | 71 | 1013.9 |
| 20260904224503 | 62 | 314 | 0.0 | 3.5 | 0.00 | 0.00 | 0.00 | 70 | 1013.7 |
| 20260904223004 | 62 | 164 | 0.0 | 0.0 | 0.00 | 0.00 | 0.00 | 69 | 1013.5 |
| 20260904221504 | 63 | 23 | 0.0 | 3.5 | 0.00 | 0.00 | 0.00 | 67 | 1013.4 |
| 20260904220004 | 63 | 32 | 0.9 | 2.6 | 0.00 | 0.00 | 0.00 | 66 | 1013.3 |
| 20260904214513 | 65 | 15 | 0.9 | 4.3 | 0.00 | 0.00 | 0.00 | 65 | 1013.1 |
| 20260904213004 | 66 | 5 | 0.0 | 2.6 | 0.00 | 0.00 | 0.00 | 65 | 1013.0 |
| 20260904211504 | 67 | 73 | 0.0 | 5.2 | 0.00 | 0.00 | 0.00 | 64 | 1013.0 |
| 20260904210008 | 69 | 306 | 0.0 | 9.6 | 0.00 | 0.00 | 0.00 | 64 | 1012.8 |
| 20260904204510 | 72 | 309 | 1.7 | 11.3 | 0.00 | 0.00 | 0.00 | 59 | 1012.4 |
| 20260904203004 | 73 | 179 | 0.9 | 9.6 | 0.00 | 0.00 | 0.00 | 57 | 1011.8 |
| 20260904201508 | 72 | 179 | 2.6 | 9.6 | 0.00 | 0.00 | 0.00 | 57 | 1011.9 |
| 20260904200010 | 72 | 179 | 0.9 | 5.2 | 0.00 | 0.00 | 0.00 | 58 | 1012.0 |
| 20260904194508 | 72 | 233 | 1.7 | 7.8 | 0.00 | 0.00 | 0.00 | 59 | 1011.9 |
| 20260904193014 | 72 | 179 | 0.9 | 10.4 | 0.00 | 0.00 | 0.00 | 60 | 1011.9 |
| 20260904191508 | 72 | 225 | 1.7 | 6.1 | 0.00 | 0.00 | 0.00 | 60 | 1011.9 |
| 20260904190024 | 72 | 153 | 0.9 | 12.2 | 0.00 | 0.00 | 0.00 | 60 | 1012.0 |
| 20260904184511 | 72 | 292 | 1.7 | 4.3 | 0.00 | 0.00 | 0.00 | 60 | 1012.1 |
| 20260904183010 | 72 | 179 | 2.6 | 7.8 | 0.00 | 0.00 | 0.00 | 59 | 1012.2 |
| 20260904181512 | 72 | 33 | 2.6 | 7.0 | 0.00 | 0.00 | 0.00 | 58 | 1012.4 |
| 20260904180014 | 72 | 179 | 0.9 | 7.0 | 0.00 | 0.00 | 0.00 | 60 | 1012.3 |
| 20260904174513 | 71 | 165 | 1.7 | 7.8 | 0.00 | 0.00 | 0.00 | 61 | 1012.2 |
| 20260904173010 | 72 | 200 | 1.7 | 6.1 | 0.00 | 0.00 | 0.00 | 60 | 1012.2 |
| 20260904171512 | 72 | 200 | 0.9 | 13.0 | 0.00 | 0.00 | 0.00 | 59 | 1012.2 |
| 20260904170013 | 72 | 277 | 2.6 | 9.6 | 0.00 | 0.00 | 0.00 | 59 | 1012.1 |
| 20260904164516 | 72 | 179 | 0.9 | 10.4 | 0.00 | 0.00 | 0.00 | 60 | 1011.9 |
| 20260904163004 | 72 | 238 | 1.7 | 9.6 | 0.00 | 0.00 | 0.00 | 61 | 1012.1 |
| 20260904161504 | 72 | 359 | 1.7 | 8.7 | 0.00 | 0.00 | 0.00 | 61 | 1012.1 |
| 20260904160005 | 72 | 265 | 1.7 | 11.3 | 0.00 | 0.00 | 0.00 | 60 | 1012.3 |
| 20260904154511 | 72 | 187 | 0.9 | 10.4 | 0.00 | 0.00 | 0.00 | 61 | 1012.2 |
| 20260904153017 | 72 | 131 | 0.9 | 6.1 | 0.00 | 0.00 | 0.00 | 62 | 1012.4 |